sensor_id;sensor_type;location;lat;lon;timestamp;pressure;altitude;pressure_sealevel;temperature;humidity
4085;BME280;2057;50.858;6.572;2023-09-18T00:00:02;99458.00;;;20.06;100.00
4085;BME280;2057;50.858;6.572;2023-09-18T00:02:27;99462.38;;;19.98;100.00
4085;BME280;2057;50.858;6.572;2023-09-18T00:04:54;99452.03;;;20.02;100.00
4085;BME280;2057;50.858;6.572;2023-09-18T00:07:30;99444.31;;;19.98;100.00
4085;BME280;2057;50.858;6.572;2023-09-18T00:09:55;99434.84;;;20.01;100.00
4085;BME280;2057;50.858;6.572;2023-09-18T00:12:20;99430.56;;;20.00;100.00
4085;BME280;2057;50.858;6.572;2023-09-18T00:14:49;99437.41;;;20.04;100.00
4085;BME280;2057;50.858;6.572;2023-09-18T00:17:15;99421.97;;;20.01;100.00
4085;BME280;2057;50.858;6.572;2023-09-18T00:19:43;99416.88;;;19.95;100.00
4085;BME280;2057;50.858;6.572;2023-09-18T00:22:11;99409.13;;;19.98;100.00
4085;BME280;2057;50.858;6.572;2023-09-18T00:24:37;99407.44;;;19.94;100.00
4085;BME280;2057;50.858;6.572;2023-09-18T00:27:05;99402.34;;;19.85;100.00
4085;BME280;2057;50.858;6.572;2023-09-18T00:29:30;99388.56;;;19.90;100.00
4085;BME280;2057;50.858;6.572;2023-09-18T00:31:55;99388.56;;;19.87;100.00
4085;BME280;2057;50.858;6.572;2023-09-18T00:34:21;99390.31;;;19.85;100.00
4085;BME280;2057;50.858;6.572;2023-09-18T00:36:46;99395.44;;;19.84;100.00
4085;BME280;2057;50.858;6.572;2023-09-18T00:39:11;99388.59;;;19.81;100.00
4085;BME280;2057;50.858;6.572;2023-09-18T00:41:40;99385.19;;;19.81;100.00
4085;BME280;2057;50.858;6.572;2023-09-18T00:44:08;99379.19;;;19.75;100.00
4085;BME280;2057;50.858;6.572;2023-09-18T00:46:36;99383.53;;;19.66;100.00
4085;BME280;2057;50.858;6.572;2023-09-18T00:49:01;99384.41;;;19.62;100.00
4085;BME280;2057;50.858;6.572;2023-09-18T00:51:30;99380.22;;;19.48;100.00
4085;BME280;2057;50.858;6.572;2023-09-18T00:53:59;99391.34;;;19.49;100.00
4085;BME280;2057;50.858;6.572;2023-09-18T00:56:24;99390.50;;;19.50;100.00
4085;BME280;2057;50.858;6.572;2023-09-18T00:58:50;99388.78;;;19.49;100.00
4085;BME280;2057;50.858;6.572;2023-09-18T01:01:21;99387.97;;;19.43;100.00
4085;BME280;2057;50.858;6.572;2023-09-18T01:03:49;99381.09;;;19.46;100.00
4085;BME280;2057;50.858;6.572;2023-09-18T01:06:15;99368.25;;;19.41;100.00
4085;BME280;2057;50.858;6.572;2023-09-18T01:08:41;99362.28;;;19.34;100.00
4085;BME280;2057;50.858;6.572;2023-09-18T01:16:44;99351.06;;;19.41;100.00
4085;BME280;2057;50.858;6.572;2023-09-18T01:19:15;99352.75;;;19.44;100.00
4085;BME280;2057;50.858;6.572;2023-09-18T01:21:40;99343.34;;;19.44;100.00
4085;BME280;2057;50.858;6.572;2023-09-18T01:24:06;99340.75;;;19.43;100.00
4085;BME280;2057;50.858;6.572;2023-09-18T01:26:34;99334.75;;;19.46;100.00
4085;BME280;2057;50.858;6.572;2023-09-18T01:28:59;99337.31;;;19.47;100.00
4085;BME280;2057;50.858;6.572;2023-09-18T01:31:25;99327.88;;;19.43;100.00
4085;BME280;2057;50.858;6.572;2023-09-18T01:33:51;99328.00;;;19.26;100.00
4085;BME280;2057;50.858;6.572;2023-09-18T01:36:18;99329.81;;;18.91;100.00
4085;BME280;2057;50.858;6.572;2023-09-18T01:38:45;99335.91;;;18.81;100.00
4085;BME280;2057;50.858;6.572;2023-09-18T01:41:11;99324.72;;;18.98;100.00
4085;BME280;2057;50.858;6.572;2023-09-18T01:43:36;99322.13;;;18.90;100.00
4085;BME280;2057;50.858;6.572;2023-09-18T01:46:02;99320.47;;;18.70;100.00
4085;BME280;2057;50.858;6.572;2023-09-18T01:48:29;99329.94;;;18.60;100.00
4085;BME280;2057;50.858;6.572;2023-09-18T01:50:55;99325.66;;;18.62;100.00
4085;BME280;2057;50.858;6.572;2023-09-18T01:53:20;99319.56;;;18.90;100.00
4085;BME280;2057;50.858;6.572;2023-09-18T01:55:45;99321.31;;;18.78;100.00
4085;BME280;2057;50.858;6.572;2023-09-18T01:58:18;99313.63;;;18.69;100.00
4085;BME280;2057;50.858;6.572;2023-09-18T02:00:43;99313.56;;;18.86;100.00
4085;BME280;2057;50.858;6.572;2023-09-18T02:03:09;99329.84;;;18.98;100.00
4085;BME280;2057;50.858;6.572;2023-09-18T02:05:39;99346.13;;;18.95;100.00
4085;BME280;2057;50.858;6.572;2023-09-18T02:08:07;99340.13;;;19.04;100.00
4085;BME280;2057;50.858;6.572;2023-09-18T02:10:37;99338.41;;;18.89;100.00
4085;BME280;2057;50.858;6.572;2023-09-18T02:13:02;99344.44;;;18.95;100.00
4085;BME280;2057;50.858;6.572;2023-09-18T02:15:29;99343.53;;;19.10;100.00
4085;BME280;2057;50.858;6.572;2023-09-18T02:17:56;99339.25;;;19.03;100.00
4085;BME280;2057;50.858;6.572;2023-09-18T02:20:21;99330.63;;;19.13;100.00
4085;BME280;2057;50.858;6.572;2023-09-18T02:22:49;99321.94;;;19.33;100.00
4085;BME280;2057;50.858;6.572;2023-09-18T02:25:14;99315.06;;;19.40;100.00
4085;BME280;2057;50.858;6.572;2023-09-18T02:27:39;99302.94;;;19.51;100.00
4085;BME280;2057;50.858;6.572;2023-09-18T02:30:05;99297.66;;;19.71;100.00
4085;BME280;2057;50.858;6.572;2023-09-18T02:32:31;99289.91;;;19.74;100.00
4085;BME280;2057;50.858;6.572;2023-09-18T02:35:00;99273.53;;;19.80;100.00
4085;BME280;2057;50.858;6.572;2023-09-18T02:37:26;99257.34;;;19.70;100.00
4085;BME280;2057;50.858;6.572;2023-09-18T02:39:51;99250.50;;;19.68;100.00
4085;BME280;2057;50.858;6.572;2023-09-18T02:42:17;99241.91;;;19.64;100.00
4085;BME280;2057;50.858;6.572;2023-09-18T02:44:42;99253.97;;;19.59;100.00
4085;BME280;2057;50.858;6.572;2023-09-18T02:47:10;99260.81;;;19.65;100.00
4085;BME280;2057;50.858;6.572;2023-09-18T02:49:37;99257.34;;;19.70;100.00
4085;BME280;2057;50.858;6.572;2023-09-18T02:52:03;99247.91;;;19.68;100.00
4085;BME280;2057;50.858;6.572;2023-09-18T02:54:28;99250.44;;;19.71;100.00
4085;BME280;2057;50.858;6.572;2023-09-18T02:56:56;99247.00;;;19.75;100.00
4085;BME280;2057;50.858;6.572;2023-09-18T02:59:22;99246.97;;;19.77;100.00
4085;BME280;2057;50.858;6.572;2023-09-18T03:01:50;99234.03;;;19.83;100.00
4085;BME280;2057;50.858;6.572;2023-09-18T03:04:17;99216.84;;;19.86;100.00
4085;BME280;2057;50.858;6.572;2023-09-18T03:06:43;99215.97;;;19.87;100.00
4085;BME280;2057;50.858;6.572;2023-09-18T03:09:08;99228.06;;;19.78;100.00
4085;BME280;2057;50.858;6.572;2023-09-18T03:11:33;99220.34;;;19.78;100.00
4085;BME280;2057;50.858;6.572;2023-09-18T03:13:59;99216.97;;;19.72;100.00
4085;BME280;2057;50.858;6.572;2023-09-18T03:16:24;99217.84;;;19.70;100.00
4085;BME280;2057;50.858;6.572;2023-09-18T03:18:49;99220.44;;;19.67;100.00
4085;BME280;2057;50.858;6.572;2023-09-18T03:21:15;99219.56;;;19.72;100.00
4085;BME280;2057;50.858;6.572;2023-09-18T03:23:40;99216.06;;;19.73;100.00
4085;BME280;2057;50.858;6.572;2023-09-18T03:26:05;99226.47;;;19.64;100.00
4085;BME280;2057;50.858;6.572;2023-09-18T03:28:33;99224.78;;;19.60;100.00
4085;BME280;2057;50.858;6.572;2023-09-18T03:30:58;99216.19;;;19.63;100.00
4085;BME280;2057;50.858;6.572;2023-09-18T03:33:24;99207.63;;;19.59;100.00
4085;BME280;2057;50.858;6.572;2023-09-18T03:35:51;99203.38;;;19.56;100.00
4085;BME280;2057;50.858;6.572;2023-09-18T03:38:19;99191.38;;;19.52;100.00
4085;BME280;2057;50.858;6.572;2023-09-18T03:40:46;99191.34;;;19.57;100.00
4085;BME280;2057;50.858;6.572;2023-09-18T03:43:12;99205.00;;;19.65;100.00
4085;BME280;2057;50.858;6.572;2023-09-18T03:45:37;99210.31;;;19.48;100.00
4085;BME280;2057;50.858;6.572;2023-09-18T03:48:04;99203.41;;;19.55;100.00
4085;BME280;2057;50.858;6.572;2023-09-18T03:50:34;99189.66;;;19.54;100.00
4085;BME280;2057;50.858;6.572;2023-09-18T03:53:07;99195.53;;;19.67;100.00
4085;BME280;2057;50.858;6.572;2023-09-18T03:55:35;99191.38;;;19.54;100.00
4085;BME280;2057;50.858;6.572;2023-09-18T03:58:00;99195.63;;;19.58;100.00
4085;BME280;2057;50.858;6.572;2023-09-18T04:00:26;99192.25;;;19.53;100.00
4085;BME280;2057;50.858;6.572;2023-09-18T04:02:51;99187.19;;;19.43;100.00
4085;BME280;2057;50.858;6.572;2023-09-18T04:05:17;99182.88;;;19.46;100.00
4085;BME280;2057;50.858;6.572;2023-09-18T04:07:42;99183.78;;;19.40;100.00
4085;BME280;2057;50.858;6.572;2023-09-18T04:10:11;99188.19;;;19.24;100.00
4085;BME280;2057;50.858;6.572;2023-09-18T04:12:42;99183.94;;;19.20;100.00
4085;BME280;2057;50.858;6.572;2023-09-18T04:15:13;99192.53;;;19.19;100.00
4085;BME280;2057;50.858;6.572;2023-09-18T04:17:41;99175.38;;;19.18;100.00
4085;BME280;2057;50.858;6.572;2023-09-18T04:20:10;99164.22;;;19.17;100.00
4085;BME280;2057;50.858;6.572;2023-09-18T04:22:36;99180.53;;;19.15;100.00
4085;BME280;2057;50.858;6.572;2023-09-18T04:25:04;99179.75;;;19.03;100.00
4085;BME280;2057;50.858;6.572;2023-09-18T04:27:32;99169.34;;;19.17;100.00
4085;BME280;2057;50.858;6.572;2023-09-18T04:29:58;99177.19;;;19.03;100.00
4085;BME280;2057;50.858;6.572;2023-09-18T04:32:23;99178.09;;;18.98;100.00
4085;BME280;2057;50.858;6.572;2023-09-18T04:34:56;99169.44;;;19.06;100.00
4085;BME280;2057;50.858;6.572;2023-09-18T04:37:22;99183.13;;;19.10;100.00
4085;BME280;2057;50.858;6.572;2023-09-18T04:39:53;99184.06;;;19.01;100.00
4085;BME280;2057;50.858;6.572;2023-09-18T04:42:18;99180.63;;;19.02;100.00
4085;BME280;2057;50.858;6.572;2023-09-18T04:44:48;99190.06;;;19.02;100.00
4085;BME280;2057;50.858;6.572;2023-09-18T04:47:14;99181.44;;;19.10;100.00
4085;BME280;2057;50.858;6.572;2023-09-18T04:49:39;99176.28;;;19.12;100.00
4085;BME280;2057;50.858;6.572;2023-09-18T04:52:04;99181.41;;;19.15;100.00
4085;BME280;2057;50.858;6.572;2023-09-18T04:54:30;99196.88;;;19.10;100.00
4085;BME280;2057;50.858;6.572;2023-09-18T04:56:56;99186.50;;;19.20;100.00
4085;BME280;2057;50.858;6.572;2023-09-18T04:59:24;99167.63;;;19.22;100.00
4085;BME280;2057;50.858;6.572;2023-09-18T05:01:49;99170.16;;;19.27;100.00
4085;BME280;2057;50.858;6.572;2023-09-18T05:04:14;99190.69;;;19.36;100.00
4085;BME280;2057;50.858;6.572;2023-09-18T05:06:40;99184.63;;;19.39;100.00
4085;BME280;2057;50.858;6.572;2023-09-18T05:09:08;99176.91;;;19.42;100.00
4085;BME280;2057;50.858;6.572;2023-09-18T05:11:35;99176.81;;;19.53;100.00
4085;BME280;2057;50.858;6.572;2023-09-18T05:14:01;99161.50;;;19.36;100.00
4085;BME280;2057;50.858;6.572;2023-09-18T05:16:27;99155.50;;;19.35;100.00
4085;BME280;2057;50.858;6.572;2023-09-18T05:18:53;99165.78;;;19.37;100.00
4085;BME280;2057;50.858;6.572;2023-09-18T05:21:19;99189.00;;;19.27;100.00
4085;BME280;2057;50.858;6.572;2023-09-18T05:23:49;99207.06;;;19.23;100.00
4085;BME280;2057;50.858;6.572;2023-09-18T05:26:14;99203.59;;;19.32;100.00
4085;BME280;2057;50.858;6.572;2023-09-18T05:28:41;99206.13;;;19.30;100.00
4085;BME280;2057;50.858;6.572;2023-09-18T05:31:16;99219.03;;;19.32;100.00
4085;BME280;2057;50.858;6.572;2023-09-18T05:33:41;99234.41;;;19.35;100.00
4085;BME280;2057;50.858;6.572;2023-09-18T05:36:06;99243.06;;;19.29;100.00
4085;BME280;2057;50.858;6.572;2023-09-18T05:38:34;99246.50;;;19.25;100.00
4085;BME280;2057;50.858;6.572;2023-09-18T05:40:59;99237.84;;;19.34;100.00
4085;BME280;2057;50.858;6.572;2023-09-18T05:43:25;99215.53;;;19.42;100.00
4085;BME280;2057;50.858;6.572;2023-09-18T05:45:50;99205.22;;;19.42;100.00
4085;BME280;2057;50.858;6.572;2023-09-18T05:48:21;99209.56;;;19.35;100.00
4085;BME280;2057;50.858;6.572;2023-09-18T05:50:46;99206.88;;;19.48;100.00
4085;BME280;2057;50.858;6.572;2023-09-18T05:53:12;99215.44;;;19.47;100.00
4085;BME280;2057;50.858;6.572;2023-09-18T05:55:41;99224.03;;;19.49;100.00
4085;BME280;2057;50.858;6.572;2023-09-18T05:58:06;99221.50;;;19.39;100.00
4085;BME280;2057;50.858;6.572;2023-09-18T06:00:32;99232.63;;;19.46;100.00
4085;BME280;2057;50.858;6.572;2023-09-18T06:03:00;99240.34;;;19.46;100.00
4085;BME280;2057;50.858;6.572;2023-09-18T06:05:26;99236.09;;;19.43;100.00
4085;BME280;2057;50.858;6.572;2023-09-18T06:07:56;99242.13;;;19.41;100.00
4085;BME280;2057;50.858;6.572;2023-09-18T06:10:21;99245.44;;;19.54;100.00
4085;BME280;2057;50.858;6.572;2023-09-18T06:12:47;99231.66;;;19.61;100.00
4085;BME280;2057;50.858;6.572;2023-09-18T06:15:12;99218.75;;;19.63;100.00
4085;BME280;2057;50.858;6.572;2023-09-18T06:17:42;99217.00;;;19.68;100.00
4085;BME280;2057;50.858;6.572;2023-09-18T06:20:09;99227.34;;;19.65;100.00
4085;BME280;2057;50.858;6.572;2023-09-18T06:22:39;99223.84;;;19.69;100.00
4085;BME280;2057;50.858;6.572;2023-09-18T06:25:05;99242.78;;;19.62;100.00
4085;BME280;2057;50.858;6.572;2023-09-18T06:27:31;99250.56;;;19.58;100.00
4085;BME280;2057;50.858;6.572;2023-09-18T06:29:57;99247.06;;;19.64;100.00
4085;BME280;2057;50.858;6.572;2023-09-18T06:32:23;99241.13;;;19.56;100.00
4085;BME280;2057;50.858;6.572;2023-09-18T06:34:48;99235.06;;;19.63;100.00
4085;BME280;2057;50.858;6.572;2023-09-18T06:37:13;99232.47;;;19.68;100.00
4085;BME280;2057;50.858;6.572;2023-09-18T06:39:38;99236.72;;;19.70;100.00
4085;BME280;2057;50.858;6.572;2023-09-18T06:42:07;99228.06;;;19.78;100.00
4085;BME280;2057;50.858;6.572;2023-09-18T06:44:35;99228.13;;;19.70;100.00
4085;BME280;2057;50.858;6.572;2023-09-18T06:47:00;99228.13;;;19.73;100.00
4085;BME280;2057;50.858;6.572;2023-09-18T06:49:25;99235.81;;;19.76;100.00
4085;BME280;2057;50.858;6.572;2023-09-18T06:51:51;99238.38;;;19.78;100.00
4085;BME280;2057;50.858;6.572;2023-09-18T06:54:17;99239.19;;;19.81;100.00
4085;BME280;2057;50.858;6.572;2023-09-18T06:56:45;99237.50;;;19.77;100.00
4085;BME280;2057;50.858;6.572;2023-09-18T06:59:10;99234.16;;;19.69;100.00
4085;BME280;2057;50.858;6.572;2023-09-18T07:01:37;99240.09;;;19.77;100.00
4085;BME280;2057;50.858;6.572;2023-09-18T07:04:03;99252.84;;;19.94;100.00
4085;BME280;2057;50.858;6.572;2023-09-18T07:06:29;99258.06;;;19.88;100.00
4085;BME280;2057;50.858;6.572;2023-09-18T07:09:05;99268.25;;;19.99;100.00
4085;BME280;2057;50.858;6.572;2023-09-18T07:11:35;99275.19;;;19.92;100.00
4085;BME280;2057;50.858;6.572;2023-09-18T07:14:05;99274.31;;;19.93;100.00
4085;BME280;2057;50.858;6.572;2023-09-18T07:16:31;99272.59;;;19.98;100.00
4085;BME280;2057;50.858;6.572;2023-09-18T07:18:57;99277.75;;;19.95;100.00
4085;BME280;2057;50.858;6.572;2023-09-18T07:21:22;99273.31;;;20.10;100.00
4085;BME280;2057;50.858;6.572;2023-09-18T07:23:47;99272.53;;;20.01;100.00
4085;BME280;2057;50.858;6.572;2023-09-18T07:26:22;99273.50;;;19.93;100.00
4085;BME280;2057;50.858;6.572;2023-09-18T07:28:47;99273.44;;;19.96;100.00
4085;BME280;2057;50.858;6.572;2023-09-18T07:31:13;99274.16;;;20.09;100.00
4085;BME280;2057;50.858;6.572;2023-09-18T07:33:42;99276.88;;;19.98;100.00
4085;BME280;2057;50.858;6.572;2023-09-18T07:36:07;99281.94;;;20.05;100.00
4085;BME280;2057;50.858;6.572;2023-09-18T07:38:34;99301.66;;;20.11;100.00
4085;BME280;2057;50.858;6.572;2023-09-18T07:41:00;99325.59;;;20.21;100.00
4085;BME280;2057;50.858;6.572;2023-09-18T07:43:32;99330.75;;;20.21;100.00
4085;BME280;2057;50.858;6.572;2023-09-18T07:45:58;99317.88;;;20.24;100.00
4085;BME280;2057;50.858;6.572;2023-09-18T07:48:25;99329.03;;;20.21;100.00
4085;BME280;2057;50.858;6.572;2023-09-18T07:50:53;99314.44;;;20.20;100.00
4085;BME280;2057;50.858;6.572;2023-09-18T07:53:20;99323.09;;;20.13;100.00
4085;BME280;2057;50.858;6.572;2023-09-18T07:55:45;99328.25;;;20.15;100.00
4085;BME280;2057;50.858;6.572;2023-09-18T07:58:11;99324.69;;;20.25;100.00
4085;BME280;2057;50.858;6.572;2023-09-18T08:00:36;99334.97;;;20.31;100.00
4085;BME280;2057;50.858;6.572;2023-09-18T08:03:02;99341.06;;;20.24;100.00
4085;BME280;2057;50.858;6.572;2023-09-18T08:05:32;99334.06;;;20.37;100.00
4085;BME280;2057;50.858;6.572;2023-09-18T08:07:57;99347.06;;;20.25;100.00
4085;BME280;2057;50.858;6.572;2023-09-18T08:10:27;99353.03;;;20.28;100.00
4085;BME280;2057;50.858;6.572;2023-09-18T08:12:52;99340.94;;;20.33;100.00
4085;BME280;2057;50.858;6.572;2023-09-18T08:15:19;99344.44;;;20.26;100.00
4085;BME280;2057;50.858;6.572;2023-09-18T08:17:48;99344.44;;;20.26;100.00
4085;BME280;2057;50.858;6.572;2023-09-18T08:20:15;99342.78;;;20.22;100.00
4085;BME280;2057;50.858;6.572;2023-09-18T08:22:43;99335.03;;;20.24;100.00
4085;BME280;2057;50.858;6.572;2023-09-18T08:25:09;99342.75;;;20.25;100.00
4085;BME280;2057;50.858;6.572;2023-09-18T08:27:39;99339.25;;;20.32;100.00
4085;BME280;2057;50.858;6.572;2023-09-18T08:30:18;99344.44;;;20.29;100.00
4085;BME280;2057;50.858;6.572;2023-09-18T08:32:46;99347.91;;;20.27;100.00
4085;BME280;2057;50.858;6.572;2023-09-18T08:35:14;99340.13;;;20.31;100.00
4085;BME280;2057;50.858;6.572;2023-09-18T08:37:40;99350.41;;;20.36;100.00
4085;BME280;2057;50.858;6.572;2023-09-18T08:40:09;99353.84;;;20.32;100.00
4085;BME280;2057;50.858;6.572;2023-09-18T08:42:36;99352.94;;;20.41;100.00
4085;BME280;2057;50.858;6.572;2023-09-18T08:45:09;99356.31;;;20.43;100.00
4085;BME280;2057;50.858;6.572;2023-09-18T08:47:39;99372.69;;;20.42;100.00
4085;BME280;2057;50.858;6.572;2023-09-18T08:50:08;99364.06;;;20.43;100.00
4085;BME280;2057;50.858;6.572;2023-09-18T08:52:38;99364.91;;;20.45;100.00
4085;BME280;2057;50.858;6.572;2023-09-18T08:55:05;99358.81;;;20.52;100.00
4085;BME280;2057;50.858;6.572;2023-09-18T08:57:32;99364.78;;;20.56;100.00
4085;BME280;2057;50.858;6.572;2023-09-18T08:59:58;99351.81;;;20.66;100.00
4085;BME280;2057;50.858;6.572;2023-09-18T09:02:26;99350.94;;;20.67;100.00
4085;BME280;2057;50.858;6.572;2023-09-18T09:04:51;99356.09;;;20.66;100.00
4085;BME280;2057;50.858;6.572;2023-09-18T09:07:20;99353.56;;;20.63;100.00
4085;BME280;2057;50.858;6.572;2023-09-18T09:09:48;99349.25;;;20.63;100.00
4085;BME280;2057;50.858;6.572;2023-09-18T09:12:16;99348.34;;;20.69;100.00
4085;BME280;2057;50.858;6.572;2023-09-18T09:15:02;99359.50;;;20.71;100.00
4085;BME280;2057;50.858;6.572;2023-09-18T09:17:28;99370.66;;;20.75;100.00
4085;BME280;2057;50.858;6.572;2023-09-18T09:20:11;99376.66;;;20.75;100.00
4085;BME280;2057;50.858;6.572;2023-09-18T09:22:40;99392.97;;;20.77;100.00
4085;BME280;2057;50.858;6.572;2023-09-18T09:25:26;99383.50;;;20.79;100.00
4085;BME280;2057;50.858;6.572;2023-09-18T09:27:54;99383.50;;;20.78;100.00
4085;BME280;2057;50.858;6.572;2023-09-18T09:30:22;99391.19;;;20.84;100.00
4085;BME280;2057;50.858;6.572;2023-09-18T09:32:50;99385.25;;;20.77;98.88
4085;BME280;2057;50.858;6.572;2023-09-18T09:35:27;99393.72;;;20.87;98.88
4085;BME280;2057;50.858;6.572;2023-09-18T09:38:00;99389.28;;;21.00;99.61
4085;BME280;2057;50.858;6.572;2023-09-18T09:40:27;99382.41;;;20.99;99.14
4085;BME280;2057;50.858;6.572;2023-09-18T09:42:54;99372.00;;;21.07;99.80
4085;BME280;2057;50.858;6.572;2023-09-18T09:45:26;99385.75;;;21.07;100.00
4085;BME280;2057;50.858;6.572;2023-09-18T09:47:53;99372.94;;;21.01;99.76
4085;BME280;2057;50.858;6.572;2023-09-18T09:50:25;99378.91;;;21.05;100.00
4085;BME280;2057;50.858;6.572;2023-09-18T09:52:52;99382.34;;;21.05;99.79
4085;BME280;2057;50.858;6.572;2023-09-18T09:55:27;99379.72;;;21.10;100.00
4085;BME280;2057;50.858;6.572;2023-09-18T09:58:01;99374.44;;;21.18;100.00
4085;BME280;2057;50.858;6.572;2023-09-18T10:00:45;99371.78;;;21.25;100.00
4085;BME280;2057;50.858;6.572;2023-09-18T10:03:15;99369.16;;;21.28;100.00
4085;BME280;2057;50.858;6.572;2023-09-18T10:05:42;99366.38;;;21.42;98.58
4085;BME280;2057;50.858;6.572;2023-09-18T10:08:21;99360.25;;;21.51;96.69
4085;BME280;2057;50.858;6.572;2023-09-18T10:10:49;99349.00;;;21.54;96.17
4085;BME280;2057;50.858;6.572;2023-09-18T10:13:20;99333.38;;;21.66;96.86
4085;BME280;2057;50.858;6.572;2023-09-18T10:15:50;99351.25;;;21.80;95.98
4085;BME280;2057;50.858;6.572;2023-09-18T10:24:19;99348.28;;;22.02;93.29
4085;BME280;2057;50.858;6.572;2023-09-18T10:26:53;99351.53;;;22.15;94.00
4085;BME280;2057;50.858;6.572;2023-09-18T10:29:22;99355.84;;;22.14;91.71
4085;BME280;2057;50.858;6.572;2023-09-18T10:31:50;99367.78;;;22.21;91.42
4085;BME280;2057;50.858;6.572;2023-09-18T10:34:23;99367.56;;;22.34;90.25
4085;BME280;2057;50.858;6.572;2023-09-18T10:36:54;99367.47;;;22.42;90.77
4085;BME280;2057;50.858;6.572;2023-09-18T10:39:26;99370.63;;;22.58;89.59
4085;BME280;2057;50.858;6.572;2023-09-18T10:41:55;99362.03;;;22.55;87.78
4085;BME280;2057;50.858;6.572;2023-09-18T10:44:23;99365.16;;;22.73;88.95
4085;BME280;2057;50.858;6.572;2023-09-18T10:46:50;99369.28;;;22.83;86.95
4085;BME280;2057;50.858;6.572;2023-09-18T10:49:17;99377.16;;;22.77;85.99
4085;BME280;2057;50.858;6.572;2023-09-18T10:51:54;99381.09;;;22.97;86.89
4085;BME280;2057;50.858;6.572;2023-09-18T10:54:26;99384.63;;;22.93;85.45
4085;BME280;2057;50.858;6.572;2023-09-18T10:56:52;99379.41;;;22.94;85.29
4085;BME280;2057;50.858;6.572;2023-09-18T10:59:18;99392.84;;;23.13;87.11
4085;BME280;2057;50.858;6.572;2023-09-18T11:01:45;99388.28;;;22.81;84.94
4085;BME280;2057;50.858;6.572;2023-09-18T11:04:13;99385.00;;;22.72;85.70
4085;BME280;2057;50.858;6.572;2023-09-18T11:09:22;99388.47;;;23.15;84.19
4085;BME280;2057;50.858;6.572;2023-09-18T11:12:02;99386.19;;;23.44;83.11
4085;BME280;2057;50.858;6.572;2023-09-18T11:14:57;99391.75;;;23.27;80.53
4085;BME280;2057;50.858;6.572;2023-09-18T11:17:39;99380.16;;;23.01;81.42
4085;BME280;2057;50.858;6.572;2023-09-18T11:22:47;99375.91;;;23.39;80.29
4085;BME280;2057;50.858;6.572;2023-09-18T11:28:01;99382.88;;;23.76;77.68
4085;BME280;2057;50.858;6.572;2023-09-18T11:30:28;99380.44;;;23.70;75.53
4085;BME280;2057;50.858;6.572;2023-09-18T11:32:55;99380.13;;;23.84;77.17
4085;BME280;2057;50.858;6.572;2023-09-18T11:35:24;99376.81;;;23.77;75.01
4085;BME280;2057;50.858;6.572;2023-09-18T11:38:08;99376.72;;;23.80;75.55
4085;BME280;2057;50.858;6.572;2023-09-18T11:40:36;99371.25;;;23.93;76.60
4085;BME280;2057;50.858;6.572;2023-09-18T11:43:26;99348.59;;;24.01;77.73
4085;BME280;2057;50.858;6.572;2023-09-18T11:45:57;99356.69;;;23.87;72.51
4085;BME280;2057;50.858;6.572;2023-09-18T11:48:26;99366.34;;;23.80;74.33
4085;BME280;2057;50.858;6.572;2023-09-18T11:51:01;99361.97;;;23.83;75.67
4085;BME280;2057;50.858;6.572;2023-09-18T11:53:36;99355.44;;;24.05;76.81
4085;BME280;2057;50.858;6.572;2023-09-18T11:56:10;99366.13;;;24.26;75.11
4085;BME280;2057;50.858;6.572;2023-09-18T11:58:48;99358.88;;;24.06;73.05
4085;BME280;2057;50.858;6.572;2023-09-18T12:01:17;99355.06;;;24.19;74.54
4085;BME280;2057;50.858;6.572;2023-09-18T12:03:45;99365.81;;;24.05;72.76
4085;BME280;2057;50.858;6.572;2023-09-18T12:06:12;99355.19;;;24.15;72.12
4085;BME280;2057;50.858;6.572;2023-09-18T12:08:39;99363.00;;;24.13;71.90
4085;BME280;2057;50.858;6.572;2023-09-18T12:11:06;99369.94;;;24.12;73.99
4085;BME280;2057;50.858;6.572;2023-09-18T12:13:31;99355.69;;;24.29;72.50
4085;BME280;2057;50.858;6.572;2023-09-18T12:15:59;99361.94;;;24.22;71.46
4085;BME280;2057;50.858;6.572;2023-09-18T12:18:25;99357.47;;;23.91;72.60
4085;BME280;2057;50.858;6.572;2023-09-18T12:20:54;99358.72;;;23.74;71.94
4085;BME280;2057;50.858;6.572;2023-09-18T12:23:21;99347.00;;;23.95;71.74
4085;BME280;2057;50.858;6.572;2023-09-18T12:25:59;99347.53;;;24.43;69.61
4085;BME280;2057;50.858;6.572;2023-09-18T12:28:25;99336.66;;;24.62;70.15
4085;BME280;2057;50.858;6.572;2023-09-18T12:30:54;99342.13;;;24.18;69.60
4085;BME280;2057;50.858;6.572;2023-09-18T12:33:25;99332.69;;;24.48;71.92
4085;BME280;2057;50.858;6.572;2023-09-18T12:35:53;99339.00;;;24.39;69.45
4085;BME280;2057;50.858;6.572;2023-09-18T12:38:18;99335.59;;;24.37;71.13
4085;BME280;2057;50.858;6.572;2023-09-18T12:40:48;99337.38;;;24.67;68.74
4085;BME280;2057;50.858;6.572;2023-09-18T12:43:14;99338.25;;;24.67;68.68
4085;BME280;2057;50.858;6.572;2023-09-18T12:45:43;99341.47;;;24.44;66.45
4085;BME280;2057;50.858;6.572;2023-09-18T12:48:09;99336.03;;;24.53;67.16
4085;BME280;2057;50.858;6.572;2023-09-18T12:50:37;99335.22;;;24.51;68.47
4085;BME280;2057;50.858;6.572;2023-09-18T12:55:32;99331.84;;;24.48;66.42
4085;BME280;2057;50.858;6.572;2023-09-18T12:57:58;99335.09;;;24.56;66.69
4085;BME280;2057;50.858;6.572;2023-09-18T13:00:24;99332.25;;;24.65;65.79
4085;BME280;2057;50.858;6.572;2023-09-18T13:02:51;99343.03;;;24.83;65.74
4085;BME280;2057;50.858;6.572;2023-09-18T13:05:21;99337.56;;;24.92;64.80
4085;BME280;2057;50.858;6.572;2023-09-18T13:07:46;99330.22;;;24.43;66.06
4085;BME280;2057;50.858;6.572;2023-09-18T13:10:13;99327.75;;;24.39;66.39
4085;BME280;2057;50.858;6.572;2023-09-18T13:15:09;99323.25;;;25.09;64.81
4085;BME280;2057;50.858;6.572;2023-09-18T13:17:45;99318.59;;;24.90;62.48
4085;BME280;2057;50.858;6.572;2023-09-18T13:20:16;99322.06;;;24.89;62.38
4085;BME280;2057;50.858;6.572;2023-09-18T13:22:48;99317.19;;;25.08;61.02
4085;BME280;2057;50.858;6.572;2023-09-18T13:25:19;99320.38;;;24.88;62.70
4085;BME280;2057;50.858;6.572;2023-09-18T13:27:46;99307.25;;;25.21;61.72
4085;BME280;2057;50.858;6.572;2023-09-18T13:30:11;99302.69;;;25.29;62.56
4085;BME280;2057;50.858;6.572;2023-09-18T13:32:45;99297.03;;;25.45;63.43
4085;BME280;2057;50.858;6.572;2023-09-18T13:35:11;99292.75;;;25.44;63.77
4085;BME280;2057;50.858;6.572;2023-09-18T13:37:39;99296.84;;;25.51;62.43
4085;BME280;2057;50.858;6.572;2023-09-18T13:40:05;99291.97;;;25.68;62.70
4085;BME280;2057;50.858;6.572;2023-09-18T13:42:37;99300.72;;;25.66;60.81